sensor_id;sensor_type;location;lat;lon;timestamp;temperature;humidity
31443;SHT31;18065;55.876;9.830;2023-03-03T00:01:54;21.04;46.30
31443;SHT31;18065;55.876;9.830;2023-03-03T00:04:25;21.04;46.32
31443;SHT31;18065;55.876;9.830;2023-03-03T00:06:54;21.02;46.31
31443;SHT31;18065;55.876;9.830;2023-03-03T00:09:22;21.05;46.29
31443;SHT31;18065;55.876;9.830;2023-03-03T00:11:53;21.04;46.27
31443;SHT31;18065;55.876;9.830;2023-03-03T00:14:23;21.02;46.29
31443;SHT31;18065;55.876;9.830;2023-03-03T00:16:53;21.04;46.31
31443;SHT31;18065;55.876;9.830;2023-03-03T00:19:22;21.02;46.29
31443;SHT31;18065;55.876;9.830;2023-03-03T00:21:54;21.04;46.31
31443;SHT31;18065;55.876;9.830;2023-03-03T00:24:24;21.04;46.28
31443;SHT31;18065;55.876;9.830;2023-03-03T00:26:56;21.02;46.31
31443;SHT31;18065;55.876;9.830;2023-03-03T00:29:32;21.02;46.29
31443;SHT31;18065;55.876;9.830;2023-03-03T00:32:11;21.02;46.30
31443;SHT31;18065;55.876;9.830;2023-03-03T00:34:43;20.99;46.26
31443;SHT31;18065;55.876;9.830;2023-03-03T00:37:21;21.02;46.28
31443;SHT31;18065;55.876;9.830;2023-03-03T00:39:50;21.01;46.28
31443;SHT31;18065;55.876;9.830;2023-03-03T00:42:18;21.02;46.24
31443;SHT31;18065;55.876;9.830;2023-03-03T00:44:47;21.01;46.27
31443;SHT31;18065;55.876;9.830;2023-03-03T00:47:23;21.01;46.30
31443;SHT31;18065;55.876;9.830;2023-03-03T00:49:52;20.98;46.29
31443;SHT31;18065;55.876;9.830;2023-03-03T00:52:23;20.99;46.28
31443;SHT31;18065;55.876;9.830;2023-03-03T00:54:54;20.98;46.32
31443;SHT31;18065;55.876;9.830;2023-03-03T00:57:23;20.99;46.23
31443;SHT31;18065;55.876;9.830;2023-03-03T00:59:52;20.98;46.29
31443;SHT31;18065;55.876;9.830;2023-03-03T01:02:20;20.99;46.23
31443;SHT31;18065;55.876;9.830;2023-03-03T01:04:49;20.99;46.24
31443;SHT31;18065;55.876;9.830;2023-03-03T01:07:17;20.99;46.26
31443;SHT31;18065;55.876;9.830;2023-03-03T01:09:48;20.99;46.27
31443;SHT31;18065;55.876;9.830;2023-03-03T01:12:17;20.97;46.26
31443;SHT31;18065;55.876;9.830;2023-03-03T01:14:45;20.95;46.25
31443;SHT31;18065;55.876;9.830;2023-03-03T01:17:17;20.97;46.24
31443;SHT31;18065;55.876;9.830;2023-03-03T01:19:45;20.97;46.27
31443;SHT31;18065;55.876;9.830;2023-03-03T01:22:13;20.97;46.24
31443;SHT31;18065;55.876;9.830;2023-03-03T01:24:42;20.95;46.24
31443;SHT31;18065;55.876;9.830;2023-03-03T01:27:13;20.97;46.23
31443;SHT31;18065;55.876;9.830;2023-03-03T01:29:41;20.94;46.24
31443;SHT31;18065;55.876;9.830;2023-03-03T01:32:09;20.94;46.26
31443;SHT31;18065;55.876;9.830;2023-03-03T01:34:38;20.98;46.25
31443;SHT31;18065;55.876;9.830;2023-03-03T01:37:06;20.94;46.29
31443;SHT31;18065;55.876;9.830;2023-03-03T01:39:34;20.95;46.27
31443;SHT31;18065;55.876;9.830;2023-03-03T01:42:03;20.97;46.24
31443;SHT31;18065;55.876;9.830;2023-03-03T01:44:34;20.94;46.23
31443;SHT31;18065;55.876;9.830;2023-03-03T01:47:04;20.97;46.24
31443;SHT31;18065;55.876;9.830;2023-03-03T01:49:35;20.95;46.22
31443;SHT31;18065;55.876;9.830;2023-03-03T01:52:09;20.95;46.22
31443;SHT31;18065;55.876;9.830;2023-03-03T01:54:40;20.91;46.22
31443;SHT31;18065;55.876;9.830;2023-03-03T01:57:10;20.94;46.31
31443;SHT31;18065;55.876;9.830;2023-03-03T01:59:43;20.97;46.32
31443;SHT31;18065;55.876;9.830;2023-03-03T02:02:12;20.97;46.30
31443;SHT31;18065;55.876;9.830;2023-03-03T02:04:41;20.98;46.39
31443;SHT31;18065;55.876;9.830;2023-03-03T02:07:09;21.01;46.39
31443;SHT31;18065;55.876;9.830;2023-03-03T02:09:41;20.99;46.39
31443;SHT31;18065;55.876;9.830;2023-03-03T02:12:13;21.05;46.36
31443;SHT31;18065;55.876;9.830;2023-03-03T02:14:46;21.04;46.39
31443;SHT31;18065;55.876;9.830;2023-03-03T02:17:14;21.09;46.40
31443;SHT31;18065;55.876;9.830;2023-03-03T02:19:45;21.11;46.39
31443;SHT31;18065;55.876;9.830;2023-03-03T02:22:16;21.14;46.38
31443;SHT31;18065;55.876;9.830;2023-03-03T02:24:48;21.14;46.40
31443;SHT31;18065;55.876;9.830;2023-03-03T02:27:21;21.16;46.34
31443;SHT31;18065;55.876;9.830;2023-03-03T02:29:49;21.18;46.32
31443;SHT31;18065;55.876;9.830;2023-03-03T02:32:17;21.19;46.30
31443;SHT31;18065;55.876;9.830;2023-03-03T02:34:46;21.19;46.29
31443;SHT31;18065;55.876;9.830;2023-03-03T02:37:15;21.22;46.26
31443;SHT31;18065;55.876;9.830;2023-03-03T02:39:44;21.22;46.26
31443;SHT31;18065;55.876;9.830;2023-03-03T02:42:14;21.23;46.26
31443;SHT31;18065;55.876;9.830;2023-03-03T02:44:45;21.23;46.23
31443;SHT31;18065;55.876;9.830;2023-03-03T02:47:14;21.27;46.26
31443;SHT31;18065;55.876;9.830;2023-03-03T02:49:42;21.23;46.22
31443;SHT31;18065;55.876;9.830;2023-03-03T02:52:11;21.27;46.23
31443;SHT31;18065;55.876;9.830;2023-03-03T02:54:42;21.23;46.23
31443;SHT31;18065;55.876;9.830;2023-03-03T02:57:10;21.23;46.25
31443;SHT31;18065;55.876;9.830;2023-03-03T02:59:39;21.25;46.23
31443;SHT31;18065;55.876;9.830;2023-03-03T03:02:09;21.23;46.22
31443;SHT31;18065;55.876;9.830;2023-03-03T03:04:38;21.25;46.20
31443;SHT31;18065;55.876;9.830;2023-03-03T03:07:06;21.25;46.18
31443;SHT31;18065;55.876;9.830;2023-03-03T03:09:36;21.25;46.18
31443;SHT31;18065;55.876;9.830;2023-03-03T03:12:04;21.27;46.18
31443;SHT31;18065;55.876;9.830;2023-03-03T03:14:32;21.22;46.15
31443;SHT31;18065;55.876;9.830;2023-03-03T03:17:01;21.25;46.17
31443;SHT31;18065;55.876;9.830;2023-03-03T03:19:32;21.25;46.19
31443;SHT31;18065;55.876;9.830;2023-03-03T03:22:00;21.23;46.20
31443;SHT31;18065;55.876;9.830;2023-03-03T03:24:28;21.23;46.18
31443;SHT31;18065;55.876;9.830;2023-03-03T03:26:57;21.25;46.14
31443;SHT31;18065;55.876;9.830;2023-03-03T03:29:25;21.23;46.13
31443;SHT31;18065;55.876;9.830;2023-03-03T03:31:53;21.22;46.18
31443;SHT31;18065;55.876;9.830;2023-03-03T03:34:22;21.21;46.18
31443;SHT31;18065;55.876;9.830;2023-03-03T03:36:53;21.22;46.24
31443;SHT31;18065;55.876;9.830;2023-03-03T03:39:21;21.23;46.24
31443;SHT31;18065;55.876;9.830;2023-03-03T03:41:50;21.21;46.24
31443;SHT31;18065;55.876;9.830;2023-03-03T03:44:18;21.21;46.20
31443;SHT31;18065;55.876;9.830;2023-03-03T03:46:48;21.22;46.14
31443;SHT31;18065;55.876;9.830;2023-03-03T03:49:16;21.25;46.20
31443;SHT31;18065;55.876;9.830;2023-03-03T03:51:45;21.23;46.21
31443;SHT31;18065;55.876;9.830;2023-03-03T03:54:15;21.21;46.22
31443;SHT31;18065;55.876;9.830;2023-03-03T03:56:44;21.23;46.19
31443;SHT31;18065;55.876;9.830;2023-03-03T03:59:12;21.25;46.15
31443;SHT31;18065;55.876;9.830;2023-03-03T04:01:40;21.25;46.18
31443;SHT31;18065;55.876;9.830;2023-03-03T04:04:09;21.22;46.15
31443;SHT31;18065;55.876;9.830;2023-03-03T04:06:37;21.25;46.13
31443;SHT31;18065;55.876;9.830;2023-03-03T04:09:06;21.23;46.17
31443;SHT31;18065;55.876;9.830;2023-03-03T04:11:37;21.22;46.15
31443;SHT31;18065;55.876;9.830;2023-03-03T04:14:05;21.23;46.15
31443;SHT31;18065;55.876;9.830;2023-03-03T04:16:33;21.23;46.15
31443;SHT31;18065;55.876;9.830;2023-03-03T04:19:02;21.23;46.16
31443;SHT31;18065;55.876;9.830;2023-03-03T04:21:30;21.23;46.09
31443;SHT31;18065;55.876;9.830;2023-03-03T04:23:59;21.22;46.08
31443;SHT31;18065;55.876;9.830;2023-03-03T04:26:27;21.23;46.07
31443;SHT31;18065;55.876;9.830;2023-03-03T04:28:58;21.25;46.08
31443;SHT31;18065;55.876;9.830;2023-03-03T04:31:26;21.23;46.09
31443;SHT31;18065;55.876;9.830;2023-03-03T04:33:55;21.22;46.13
31443;SHT31;18065;55.876;9.830;2023-03-03T04:36:23;21.21;46.12
31443;SHT31;18065;55.876;9.830;2023-03-03T04:38:51;21.21;46.13
31443;SHT31;18065;55.876;9.830;2023-03-03T04:41:20;21.21;46.18
31443;SHT31;18065;55.876;9.830;2023-03-03T04:43:48;21.23;46.15
31443;SHT31;18065;55.876;9.830;2023-03-03T04:46:19;21.22;46.15
31443;SHT31;18065;55.876;9.830;2023-03-03T04:48:47;21.22;46.18
31443;SHT31;18065;55.876;9.830;2023-03-03T04:51:16;21.21;46.15
31443;SHT31;18065;55.876;9.830;2023-03-03T04:53:44;21.22;46.13
31443;SHT31;18065;55.876;9.830;2023-03-03T04:56:13;21.23;46.10
31443;SHT31;18065;55.876;9.830;2023-03-03T04:58:41;21.25;46.13
31443;SHT31;18065;55.876;9.830;2023-03-03T05:01:10;21.22;46.14
31443;SHT31;18065;55.876;9.830;2023-03-03T05:03:42;21.22;46.11
31443;SHT31;18065;55.876;9.830;2023-03-03T05:06:10;21.23;46.09
31443;SHT31;18065;55.876;9.830;2023-03-03T05:08:39;21.25;46.13
31443;SHT31;18065;55.876;9.830;2023-03-03T05:11:07;21.23;46.10
31443;SHT31;18065;55.876;9.830;2023-03-03T05:13:35;21.22;46.12
31443;SHT31;18065;55.876;9.830;2023-03-03T05:16:04;21.23;46.10
31443;SHT31;18065;55.876;9.830;2023-03-03T05:18:33;21.23;46.05
31443;SHT31;18065;55.876;9.830;2023-03-03T05:21:04;21.23;46.08
31443;SHT31;18065;55.876;9.830;2023-03-03T05:23:32;21.22;46.11
31443;SHT31;18065;55.876;9.830;2023-03-03T05:26:01;21.22;46.04
31443;SHT31;18065;55.876;9.830;2023-03-03T05:28:29;21.22;46.07
31443;SHT31;18065;55.876;9.830;2023-03-03T05:30:57;21.23;46.05
31443;SHT31;18065;55.876;9.830;2023-03-03T05:33:26;21.23;46.08
31443;SHT31;18065;55.876;9.830;2023-03-03T05:35:54;21.21;46.06
31443;SHT31;18065;55.876;9.830;2023-03-03T05:38:25;21.22;46.08
31443;SHT31;18065;55.876;9.830;2023-03-03T05:40:54;21.22;46.04
31443;SHT31;18065;55.876;9.830;2023-03-03T05:43:22;21.21;46.03
31443;SHT31;18065;55.876;9.830;2023-03-03T05:45:53;21.19;46.09
31443;SHT31;18065;55.876;9.830;2023-03-03T05:48:21;21.19;46.07
31443;SHT31;18065;55.876;9.830;2023-03-03T05:50:50;21.19;46.04
31443;SHT31;18065;55.876;9.830;2023-03-03T05:53:18;21.21;46.00
31443;SHT31;18065;55.876;9.830;2023-03-03T05:55:49;21.19;46.04
31443;SHT31;18065;55.876;9.830;2023-03-03T05:58:17;21.19;46.04
31443;SHT31;18065;55.876;9.830;2023-03-03T06:00:46;21.19;46.03
31443;SHT31;18065;55.876;9.830;2023-03-03T06:03:26;21.18;46.02
31443;SHT31;18065;55.876;9.830;2023-03-03T06:05:54;21.16;46.03
31443;SHT31;18065;55.876;9.830;2023-03-03T06:08:23;21.16;45.99
31443;SHT31;18065;55.876;9.830;2023-03-03T06:10:51;21.18;46.03
31443;SHT31;18065;55.876;9.830;2023-03-03T06:13:19;21.15;46.03
31443;SHT31;18065;55.876;9.830;2023-03-03T06:15:48;21.16;46.01
31443;SHT31;18065;55.876;9.830;2023-03-03T06:18:16;21.15;45.99
31443;SHT31;18065;55.876;9.830;2023-03-03T06:20:49;21.15;46.00
31443;SHT31;18065;55.876;9.830;2023-03-03T06:23:17;21.15;45.98
31443;SHT31;18065;55.876;9.830;2023-03-03T06:25:46;21.15;45.98
31443;SHT31;18065;55.876;9.830;2023-03-03T06:28:14;21.15;46.00
31443;SHT31;18065;55.876;9.830;2023-03-03T06:30:42;21.16;46.04
31443;SHT31;18065;55.876;9.830;2023-03-03T06:33:11;21.14;46.03
31443;SHT31;18065;55.876;9.830;2023-03-03T06:35:39;21.12;46.00
31443;SHT31;18065;55.876;9.830;2023-03-03T06:38:10;21.12;46.00
31443;SHT31;18065;55.876;9.830;2023-03-03T06:40:38;21.11;46.00
31443;SHT31;18065;55.876;9.830;2023-03-03T06:43:07;21.12;46.01
31443;SHT31;18065;55.876;9.830;2023-03-03T06:45:35;21.09;46.01
31443;SHT31;18065;55.876;9.830;2023-03-03T06:48:03;21.12;45.99
31443;SHT31;18065;55.876;9.830;2023-03-03T06:50:32;21.11;46.01
31443;SHT31;18065;55.876;9.830;2023-03-03T06:53:01;21.08;45.97
31443;SHT31;18065;55.876;9.830;2023-03-03T06:55:35;21.09;46.02
31443;SHT31;18065;55.876;9.830;2023-03-03T06:58:04;21.09;46.03
31443;SHT31;18065;55.876;9.830;2023-03-03T07:00:36;21.08;45.98
31443;SHT31;18065;55.876;9.830;2023-03-03T07:03:06;21.08;45.98
31443;SHT31;18065;55.876;9.830;2023-03-03T07:05:35;21.11;45.99
31443;SHT31;18065;55.876;9.830;2023-03-03T07:08:05;21.09;46.02
31443;SHT31;18065;55.876;9.830;2023-03-03T07:10:36;21.08;45.98
31443;SHT31;18065;55.876;9.830;2023-03-03T07:13:14;21.07;45.99
31443;SHT31;18065;55.876;9.830;2023-03-03T07:15:44;21.08;46.00
31443;SHT31;18065;55.876;9.830;2023-03-03T07:18:20;21.08;46.05
31443;SHT31;18065;55.876;9.830;2023-03-03T07:20:50;21.08;46.07
31443;SHT31;18065;55.876;9.830;2023-03-03T07:23:20;21.07;46.06
31443;SHT31;18065;55.876;9.830;2023-03-03T07:25:51;21.07;46.09
31443;SHT31;18065;55.876;9.830;2023-03-03T07:28:21;21.08;46.08
31443;SHT31;18065;55.876;9.830;2023-03-03T07:30:50;21.11;46.08
31443;SHT31;18065;55.876;9.830;2023-03-03T07:33:21;21.12;46.12
31443;SHT31;18065;55.876;9.830;2023-03-03T07:35:51;21.12;46.07
31443;SHT31;18065;55.876;9.830;2023-03-03T07:38:24;21.15;46.03
31443;SHT31;18065;55.876;9.830;2023-03-03T07:40:58;21.18;46.02
31443;SHT31;18065;55.876;9.830;2023-03-03T07:43:33;21.19;46.01
31443;SHT31;18065;55.876;9.830;2023-03-03T07:46:02;21.18;45.99
31443;SHT31;18065;55.876;9.830;2023-03-03T07:48:40;21.15;46.02
31443;SHT31;18065;55.876;9.830;2023-03-03T07:51:11;21.19;45.98
31443;SHT31;18065;55.876;9.830;2023-03-03T07:53:40;21.21;46.00
31443;SHT31;18065;55.876;9.830;2023-03-03T07:56:18;21.19;45.97
31443;SHT31;18065;55.876;9.830;2023-03-03T07:58:49;21.21;45.90
31443;SHT31;18065;55.876;9.830;2023-03-03T08:04:02;21.18;45.89
31443;SHT31;18065;55.876;9.830;2023-03-03T08:06:36;21.19;45.92
31443;SHT31;18065;55.876;9.830;2023-03-03T08:09:15;21.19;45.96
31443;SHT31;18065;55.876;9.830;2023-03-03T08:11:56;21.19;45.89
31443;SHT31;18065;55.876;9.830;2023-03-03T08:14:25;21.19;45.90
31443;SHT31;18065;55.876;9.830;2023-03-03T08:16:54;21.21;45.88
31443;SHT31;18065;55.876;9.830;2023-03-03T08:19:23;21.18;45.90
31443;SHT31;18065;55.876;9.830;2023-03-03T08:21:52;21.19;45.89
31443;SHT31;18065;55.876;9.830;2023-03-03T08:24:24;21.18;45.89
31443;SHT31;18065;55.876;9.830;2023-03-03T08:26:55;21.19;45.88
31443;SHT31;18065;55.876;9.830;2023-03-03T08:29:23;21.21;45.89
31443;SHT31;18065;55.876;9.830;2023-03-03T08:31:52;21.18;45.83
31443;SHT31;18065;55.876;9.830;2023-03-03T08:34:20;21.19;45.83
31443;SHT31;18065;55.876;9.830;2023-03-03T08:36:48;21.19;45.85
31443;SHT31;18065;55.876;9.830;2023-03-03T08:39:17;21.19;45.85
31443;SHT31;18065;55.876;9.830;2023-03-03T08:41:45;21.16;45.86
31443;SHT31;18065;55.876;9.830;2023-03-03T08:44:16;21.18;45.90
31443;SHT31;18065;55.876;9.830;2023-03-03T08:46:45;21.18;45.92
31443;SHT31;18065;55.876;9.830;2023-03-03T08:49:13;21.19;45.93
31443;SHT31;18065;55.876;9.830;2023-03-03T08:51:41;21.21;45.92
31443;SHT31;18065;55.876;9.830;2023-03-03T08:54:10;21.23;45.91
31443;SHT31;18065;55.876;9.830;2023-03-03T08:56:38;21.27;45.97
31443;SHT31;18065;55.876;9.830;2023-03-03T08:59:06;21.27;45.96
31443;SHT31;18065;55.876;9.830;2023-03-03T09:01:38;21.27;45.95
31443;SHT31;18065;55.876;9.830;2023-03-03T09:04:08;21.31;45.93
31443;SHT31;18065;55.876;9.830;2023-03-03T09:06:37;21.31;45.86
31443;SHT31;18065;55.876;9.830;2023-03-03T09:09:05;21.31;45.85
31443;SHT31;18065;55.876;9.830;2023-03-03T09:11:33;21.32;45.86
31443;SHT31;18065;55.876;9.830;2023-03-03T09:14:05;21.32;45.84
31443;SHT31;18065;55.876;9.830;2023-03-03T09:16:35;21.35;45.82
31443;SHT31;18065;55.876;9.830;2023-03-03T09:19:17;21.36;45.83
31443;SHT31;18065;55.876;9.830;2023-03-03T09:21:47;21.36;45.83
31443;SHT31;18065;55.876;9.830;2023-03-03T09:24:17;21.36;45.84
31443;SHT31;18065;55.876;9.830;2023-03-03T09:26:48;21.38;45.82
31443;SHT31;18065;55.876;9.830;2023-03-03T09:29:18;21.35;45.81
31443;SHT31;18065;55.876;9.830;2023-03-03T09:31:50;21.36;45.80
31443;SHT31;18065;55.876;9.830;2023-03-03T09:34:23;21.38;45.76
31443;SHT31;18065;55.876;9.830;2023-03-03T09:36:53;21.35;45.81
31443;SHT31;18065;55.876;9.830;2023-03-03T09:39:24;21.36;45.84
31443;SHT31;18065;55.876;9.830;2023-03-03T09:41:58;21.36;45.81
31443;SHT31;18065;55.876;9.830;2023-03-03T09:44:43;21.36;45.80
31443;SHT31;18065;55.876;9.830;2023-03-03T09:47:27;21.36;45.85
31443;SHT31;18065;55.876;9.830;2023-03-03T09:50:01;21.35;45.85
31443;SHT31;18065;55.876;9.830;2023-03-03T09:52:37;21.35;45.82
31443;SHT31;18065;55.876;9.830;2023-03-03T09:55:11;21.36;45.84
31443;SHT31;18065;55.876;9.830;2023-03-03T09:57:46;21.36;45.83
31443;SHT31;18065;55.876;9.830;2023-03-03T10:00:24;21.36;45.82
31443;SHT31;18065;55.876;9.830;2023-03-03T10:03:02;21.35;45.82
31443;SHT31;18065;55.876;9.830;2023-03-03T10:05:41;21.38;45.84
31443;SHT31;18065;55.876;9.830;2023-03-03T10:08:22;21.36;45.84
31443;SHT31;18065;55.876;9.830;2023-03-03T10:10:57;21.36;45.84
31443;SHT31;18065;55.876;9.830;2023-03-03T10:13:33;21.38;45.84
31443;SHT31;18065;55.876;9.830;2023-03-03T10:16:12;21.36;45.86
31443;SHT31;18065;55.876;9.830;2023-03-03T10:18:46;21.36;45.88
31443;SHT31;18065;55.876;9.830;2023-03-03T10:21:21;21.36;45.88
31443;SHT31;18065;55.876;9.830;2023-03-03T10:23:52;21.35;45.92
31443;SHT31;18065;55.876;9.830;2023-03-03T10:26:25;21.35;45.89
31443;SHT31;18065;55.876;9.830;2023-03-03T10:28:57;21.35;45.90
31443;SHT31;18065;55.876;9.830;2023-03-03T10:31:32;21.36;45.88
31443;SHT31;18065;55.876;9.830;2023-03-03T10:34:06;21.38;45.90
31443;SHT31;18065;55.876;9.830;2023-03-03T10:36:44;21.38;45.89
31443;SHT31;18065;55.876;9.830;2023-03-03T10:39:20;21.38;45.91
31443;SHT31;18065;55.876;9.830;2023-03-03T10:41:56;21.36;45.96
31443;SHT31;18065;55.876;9.830;2023-03-03T10:44:29;21.36;45.94
31443;SHT31;18065;55.876;9.830;2023-03-03T10:47:09;21.35;45.91
31443;SHT31;18065;55.876;9.830;2023-03-03T10:49:45;21.38;45.98
31443;SHT31;18065;55.876;9.830;2023-03-03T10:52:25;21.35;45.92
31443;SHT31;18065;55.876;9.830;2023-03-03T10:57:39;21.38;45.91
31443;SHT31;18065;55.876;9.830;2023-03-03T11:00:15;21.35;45.95
31443;SHT31;18065;55.876;9.830;2023-03-03T11:02:47;21.36;45.92
31443;SHT31;18065;55.876;9.830;2023-03-03T11:05:21;21.36;45.94
31443;SHT31;18065;55.876;9.830;2023-03-03T11:07:59;21.38;45.90
31443;SHT31;18065;55.876;9.830;2023-03-03T11:13:13;21.36;45.94
31443;SHT31;18065;55.876;9.830;2023-03-03T11:15:49;21.36;45.91
31443;SHT31;18065;55.876;9.830;2023-03-03T11:18:20;21.38;45.85
31443;SHT31;18065;55.876;9.830;2023-03-03T11:20:54;21.35;45.84
31443;SHT31;18065;55.876;9.830;2023-03-03T11:26:11;21.35;45.92
31443;SHT31;18065;55.876;9.830;2023-03-03T11:28:46;21.35;45.93
31443;SHT31;18065;55.876;9.830;2023-03-03T11:31:20;21.34;45.92
31443;SHT31;18065;55.876;9.830;2023-03-03T11:33:54;21.36;45.88
31443;SHT31;18065;55.876;9.830;2023-03-03T11:36:25;21.35;45.87
31443;SHT31;18065;55.876;9.830;2023-03-03T11:38:56;21.36;45.83
31443;SHT31;18065;55.876;9.830;2023-03-03T11:41:34;21.35;45.86
31443;SHT31;18065;55.876;9.830;2023-03-03T11:44:10;21.34;45.91
31443;SHT31;18065;55.876;9.830;2023-03-03T11:46:42;21.35;45.88
31443;SHT31;18065;55.876;9.830;2023-03-03T11:49:13;21.35;45.91
31443;SHT31;18065;55.876;9.830;2023-03-03T11:51:46;21.34;45.87
31443;SHT31;18065;55.876;9.830;2023-03-03T11:54:17;21.35;45.91
31443;SHT31;18065;55.876;9.830;2023-03-03T11:56:49;21.34;45.91
31443;SHT31;18065;55.876;9.830;2023-03-03T12:02:02;21.32;45.91
31443;SHT31;18065;55.876;9.830;2023-03-03T12:04:33;21.34;45.88
31443;SHT31;18065;55.876;9.830;2023-03-03T12:07:08;21.34;45.96
31443;SHT31;18065;55.876;9.830;2023-03-03T12:09:39;21.32;45.94
31443;SHT31;18065;55.876;9.830;2023-03-03T12:12:14;21.32;45.96
31443;SHT31;18065;55.876;9.830;2023-03-03T12:14:55;21.32;45.89
31443;SHT31;18065;55.876;9.830;2023-03-03T12:17:29;21.32;45.91
31443;SHT31;18065;55.876;9.830;2023-03-03T12:20:05;21.31;45.91
31443;SHT31;18065;55.876;9.830;2023-03-03T12:22:36;21.32;45.91
31443;SHT31;18065;55.876;9.830;2023-03-03T12:25:10;21.32;45.98
31443;SHT31;18065;55.876;9.830;2023-03-03T12:27:46;21.31;45.91
31443;SHT31;18065;55.876;9.830;2023-03-03T12:30:19;21.32;45.94
31443;SHT31;18065;55.876;9.830;2023-03-03T12:33:01;21.32;45.97
31443;SHT31;18065;55.876;9.830;2023-03-03T12:35:34;21.32;45.92
31443;SHT31;18065;55.876;9.830;2023-03-03T12:38:08;21.31;45.93
31443;SHT31;18065;55.876;9.830;2023-03-03T12:40:39;21.32;45.93
31443;SHT31;18065;55.876;9.830;2023-03-03T12:43:20;21.32;45.90
31443;SHT31;18065;55.876;9.830;2023-03-03T12:45:53;21.32;45.94
31443;SHT31;18065;55.876;9.830;2023-03-03T12:48:24;21.29;45.97
31443;SHT31;18065;55.876;9.830;2023-03-03T12:50:57;21.31;45.90
31443;SHT31;18065;55.876;9.830;2023-03-03T12:53:30;21.29;45.99
31443;SHT31;18065;55.876;9.830;2023-03-03T12:56:04;21.29;45.94
31443;SHT31;18065;55.876;9.830;2023-03-03T12:58:39;21.29;45.98
31443;SHT31;18065;55.876;9.830;2023-03-03T13:01:14;21.29;45.96
31443;SHT31;18065;55.876;9.830;2023-03-03T13:03:48;21.32;45.98
31443;SHT31;18065;55.876;9.830;2023-03-03T13:06:19;21.29;45.99
31443;SHT31;18065;55.876;9.830;2023-03-03T13:08:52;21.25;45.93
31443;SHT31;18065;55.876;9.830;2023-03-03T13:11:28;21.29;45.97
31443;SHT31;18065;55.876;9.830;2023-03-03T13:14:09;21.28;45.98
31443;SHT31;18065;55.876;9.830;2023-03-03T13:16:40;21.31;46.01
31443;SHT31;18065;55.876;9.830;2023-03-03T13:19:12;21.32;45.98
31443;SHT31;18065;55.876;9.830;2023-03-03T13:21:43;21.31;46.01
31443;SHT31;18065;55.876;9.830;2023-03-03T13:24:15;21.28;46.05
31443;SHT31;18065;55.876;9.830;2023-03-03T13:26:46;21.31;46.02
31443;SHT31;18065;55.876;9.830;2023-03-03T13:29:22;21.31;46.03
31443;SHT31;18065;55.876;9.830;2023-03-03T13:31:53;21.29;46.06
31443;SHT31;18065;55.876;9.830;2023-03-03T13:34:24;21.28;45.99
31443;SHT31;18065;55.876;9.830;2023-03-03T13:36:55;21.27;46.03
31443;SHT31;18065;55.876;9.830;2023-03-03T13:39:26;21.28;46.05
31443;SHT31;18065;55.876;9.830;2023-03-03T13:41:56;21.29;45.98
31443;SHT31;18065;55.876;9.830;2023-03-03T13:44:30;21.29;46.03
31443;SHT31;18065;55.876;9.830;2023-03-03T13:47:07;21.28;46.03
31443;SHT31;18065;55.876;9.830;2023-03-03T13:49:46;21.28;46.06
31443;SHT31;18065;55.876;9.830;2023-03-03T13:52:23;21.29;46.07
31443;SHT31;18065;55.876;9.830;2023-03-03T13:54:56;21.29;46.05
31443;SHT31;18065;55.876;9.830;2023-03-03T14:00:18;21.28;46.11
31443;SHT31;18065;55.876;9.830;2023-03-03T14:05:33;21.27;46.02
31443;SHT31;18065;55.876;9.830;2023-03-03T14:08:06;21.28;46.07
31443;SHT31;18065;55.876;9.830;2023-03-03T14:10:37;21.28;46.09
31443;SHT31;18065;55.876;9.830;2023-03-03T14:13:07;21.28;46.09
31443;SHT31;18065;55.876;9.830;2023-03-03T14:15:41;21.28;46.09
31443;SHT31;18065;55.876;9.830;2023-03-03T14:18:17;21.29;46.13
31443;SHT31;18065;55.876;9.830;2023-03-03T14:20:48;21.29;46.12
31443;SHT31;18065;55.876;9.830;2023-03-03T14:23:18;21.27;46.08
31443;SHT31;18065;55.876;9.830;2023-03-03T14:25:56;21.29;46.08
31443;SHT31;18065;55.876;9.830;2023-03-03T14:28:25;21.28;46.09
31443;SHT31;18065;55.876;9.830;2023-03-03T14:30:57;21.29;46.07
31443;SHT31;18065;55.876;9.830;2023-03-03T14:33:27;21.29;46.12
31443;SHT31;18065;55.876;9.830;2023-03-03T14:36:00;21.28;46.11
31443;SHT31;18065;55.876;9.830;2023-03-03T14:38:37;21.29;46.07
31443;SHT31;18065;55.876;9.830;2023-03-03T14:41:11;21.29;46.12
31443;SHT31;18065;55.876;9.830;2023-03-03T14:43:41;21.27;46.06
31443;SHT31;18065;55.876;9.830;2023-03-03T14:49:00;21.29;46.07
31443;SHT31;18065;55.876;9.830;2023-03-03T14:51:32;21.28;46.13
31443;SHT31;18065;55.876;9.830;2023-03-03T14:54:00;21.29;46.13
31443;SHT31;18065;55.876;9.830;2023-03-03T14:56:35;21.28;46.07
31443;SHT31;18065;55.876;9.830;2023-03-03T14:59:15;21.28;46.11
31443;SHT31;18065;55.876;9.830;2023-03-03T15:01:44;21.29;46.12
31443;SHT31;18065;55.876;9.830;2023-03-03T15:04:25;21.28;46.10
31443;SHT31;18065;55.876;9.830;2023-03-03T15:06:55;21.25;46.11
31443;SHT31;18065;55.876;9.830;2023-03-03T15:09:24;21.29;46.12
31443;SHT31;18065;55.876;9.830;2023-03-03T15:11:54;21.28;46.15
31443;SHT31;18065;55.876;9.830;2023-03-03T15:14:25;21.28;46.18
31443;SHT31;18065;55.876;9.830;2023-03-03T15:16:55;21.29;46.19
31443;SHT31;18065;55.876;9.830;2023-03-03T15:19:31;21.32;46.18
31443;SHT31;18065;55.876;9.830;2023-03-03T15:22:05;21.34;46.26
31443;SHT31;18065;55.876;9.830;2023-03-03T15:24:37;21.34;46.19
31443;SHT31;18065;55.876;9.830;2023-03-03T15:27:09;21.35;46.22
31443;SHT31;18065;55.876;9.830;2023-03-03T15:29:40;21.38;46.19
31443;SHT31;18065;55.876;9.830;2023-03-03T15:32:14;21.36;46.23
31443;SHT31;18065;55.876;9.830;2023-03-03T15:34:50;21.39;46.22
31443;SHT31;18065;55.876;9.830;2023-03-03T15:37:31;21.38;46.19
31443;SHT31;18065;55.876;9.830;2023-03-03T15:40:02;21.39;46.15
31443;SHT31;18065;55.876;9.830;2023-03-03T15:42:34;21.39;46.19
31443;SHT31;18065;55.876;9.830;2023-03-03T15:45:07;21.41;46.17
31443;SHT31;18065;55.876;9.830;2023-03-03T15:50:29;21.42;46.19
31443;SHT31;18065;55.876;9.830;2023-03-03T15:53:03;21.43;46.17
31443;SHT31;18065;55.876;9.830;2023-03-03T15:55:37;21.42;46.20
31443;SHT31;18065;55.876;9.830;2023-03-03T15:58:35;21.45;46.09
31443;SHT31;18065;55.876;9.830;2023-03-03T16:01:07;21.42;46.11
31443;SHT31;18065;55.876;9.830;2023-03-03T16:03:42;21.42;46.15
31443;SHT31;18065;55.876;9.830;2023-03-03T16:06:17;21.43;46.15
31443;SHT31;18065;55.876;9.830;2023-03-03T16:08:48;21.45;46.18
31443;SHT31;18065;55.876;9.830;2023-03-03T16:11:24;21.42;46.17
31443;SHT31;18065;55.876;9.830;2023-03-03T16:14:08;21.42;46.19
31443;SHT31;18065;55.876;9.830;2023-03-03T16:16:41;21.43;46.18
31443;SHT31;18065;55.876;9.830;2023-03-03T16:19:12;21.43;46.19
31443;SHT31;18065;55.876;9.830;2023-03-03T16:21:53;21.43;46.21